Aeroporto :
LOGIN :

Iscrizione | Disclaimer

   EN    FR    IT 

 










Sommario :    VFR   VFR Marginale   IFR   IFR Intensivo   IFR Molto Intensivo
Visibilità : 
Base nubi : 
>= 8 km
>= 3000ft
5 / 8 km
1000 / 3000 ft
1500m / 5 km
500 / 1000 ft
800 / 1500m
200 / 500 ft
< 800m
< 200 ft
Simboli :   Temporali  Nebbia  Neve Forte  Precipitazioni Forti  Vento > 20 kt
SIGMETs :   Varie  Temporali  Ghiacco  Turbolenza  Onda orograficha  Ceneri Vulcaniche






- Altitudine del aeroporto : 768 ft
- Codice IATA : MXP


LIMC - Milano Malpensa

ULTIMO METAR :
  • 280520Z 01008KT CAVOK 03/M07 Q1013 NOSIG

METARs OBSOLETI :
  • 280450Z 02008KT CAVOK 01/M06 Q1013 NOSIG
  • 280420Z 04008KT 010V070 CAVOK 08/M08 Q1012 NOSIG
  • 280350Z 07009KT 020V100 CAVOK 06/M06 Q1012 NOSIG
  • 280320Z 11004KT 060V150 CAVOK 05/M04 Q1011 NOSIG
  • 280250Z 20003KT 140V240 CAVOK 04/M03 Q1010 NOSIG
  • 280220Z 26007KT CAVOK 05/M02 Q1009 NOSIG

TAF TAF LIMC
Valido dal 28 a 00 ore il 29 a 06 ore UTC


272300Z 2800/2906 36010KT CAVOK
TEMPO 2800/2806 35015G25KT
BECMG 2806/2808 26006KT



MetMap, La meteo Aeronautica in un colpo d'occhio ! - Copyright ORBIFLY Dicembre 2007 - Disclaimer

ORBIFLY MET'MAP TEAM :

Programmazione e sviluppo : Alexandra Zaïnal
Concezione : Baudouin d'Aumeries
Aiuto per la programmazione : Marc-Olivier Méhu
Supporto tecnico e logistico : Manuel Goepfert
Aiuto per la traduzione : Arnaldo La Scala

Contatto : metmap@orbifly.com




FONTI E CREDITI :

   NOAA